sensor_id;sensor_type;location;lat;lon;timestamp;temperature;humidity
30097;DHT22;16915;51.466;3.610;2023-07-13T00:01:42;17.00;99.90
30097;DHT22;16915;51.466;3.610;2023-07-13T00:04:08;17.00;99.90
30097;DHT22;16915;51.466;3.610;2023-07-13T00:06:34;17.00;99.90
30097;DHT22;16915;51.466;3.610;2023-07-13T00:09:00;16.90;99.90
30097;DHT22;16915;51.466;3.610;2023-07-13T00:11:26;16.90;99.90
30097;DHT22;16915;51.466;3.610;2023-07-13T00:13:52;16.80;99.90
30097;DHT22;16915;51.466;3.610;2023-07-13T00:16:17;16.80;99.90
30097;DHT22;16915;51.466;3.610;2023-07-13T00:18:44;16.70;99.90
30097;DHT22;16915;51.466;3.610;2023-07-13T00:21:10;16.70;99.90
30097;DHT22;16915;51.466;3.610;2023-07-13T00:23:36;16.70;99.90
30097;DHT22;16915;51.466;3.610;2023-07-13T00:26:02;16.80;99.90
30097;DHT22;16915;51.466;3.610;2023-07-13T00:28:28;16.80;99.90
30097;DHT22;16915;51.466;3.610;2023-07-13T00:30:54;16.80;99.90
30097;DHT22;16915;51.466;3.610;2023-07-13T00:33:19;16.80;99.90
30097;DHT22;16915;51.466;3.610;2023-07-13T00:35:45;16.70;99.90
30097;DHT22;16915;51.466;3.610;2023-07-13T00:38:11;16.60;99.90
30097;DHT22;16915;51.466;3.610;2023-07-13T00:40:36;16.60;99.90
30097;DHT22;16915;51.466;3.610;2023-07-13T00:43:02;16.50;99.90
30097;DHT22;16915;51.466;3.610;2023-07-13T00:47:55;16.40;99.90
30097;DHT22;16915;51.466;3.610;2023-07-13T00:50:21;16.40;99.90
30097;DHT22;16915;51.466;3.610;2023-07-13T00:52:48;16.40;99.90
30097;DHT22;16915;51.466;3.610;2023-07-13T00:55:14;16.40;99.90
30097;DHT22;16915;51.466;3.610;2023-07-13T00:57:41;16.40;99.90
30097;DHT22;16915;51.466;3.610;2023-07-13T01:00:06;16.40;99.90
30097;DHT22;16915;51.466;3.610;2023-07-13T01:02:35;16.30;99.90
30097;DHT22;16915;51.466;3.610;2023-07-13T01:05:04;16.30;99.90
30097;DHT22;16915;51.466;3.610;2023-07-13T01:07:33;16.30;99.90
30097;DHT22;16915;51.466;3.610;2023-07-13T01:09:59;16.20;99.90
30097;DHT22;16915;51.466;3.610;2023-07-13T01:12:24;16.30;99.90
30097;DHT22;16915;51.466;3.610;2023-07-13T01:14:56;16.30;99.90
30097;DHT22;16915;51.466;3.610;2023-07-13T01:17:22;16.20;99.90
30097;DHT22;16915;51.466;3.610;2023-07-13T01:19:47;16.20;99.90
30097;DHT22;16915;51.466;3.610;2023-07-13T01:22:14;16.20;99.90
30097;DHT22;16915;51.466;3.610;2023-07-13T01:24:43;16.20;99.90
30097;DHT22;16915;51.466;3.610;2023-07-13T01:27:09;16.10;99.90
30097;DHT22;16915;51.466;3.610;2023-07-13T01:29:36;16.10;99.90
30097;DHT22;16915;51.466;3.610;2023-07-13T01:32:11;16.10;99.90
30097;DHT22;16915;51.466;3.610;2023-07-13T01:34:37;16.10;99.90
30097;DHT22;16915;51.466;3.610;2023-07-13T01:37:06;16.10;99.90
30097;DHT22;16915;51.466;3.610;2023-07-13T01:39:32;16.20;99.90
30097;DHT22;16915;51.466;3.610;2023-07-13T01:41:58;16.20;99.90
30097;DHT22;16915;51.466;3.610;2023-07-13T01:44:23;16.20;99.90
30097;DHT22;16915;51.466;3.610;2023-07-13T01:46:49;16.20;99.90
30097;DHT22;16915;51.466;3.610;2023-07-13T01:49:14;16.10;99.90
30097;DHT22;16915;51.466;3.610;2023-07-13T01:51:40;16.10;99.90
30097;DHT22;16915;51.466;3.610;2023-07-13T01:54:05;16.10;99.90
30097;DHT22;16915;51.466;3.610;2023-07-13T01:56:31;16.20;99.90
30097;DHT22;16915;51.466;3.610;2023-07-13T01:58:56;16.10;99.90
30097;DHT22;16915;51.466;3.610;2023-07-13T02:01:22;16.20;99.90
30097;DHT22;16915;51.466;3.610;2023-07-13T02:03:48;16.10;99.90
30097;DHT22;16915;51.466;3.610;2023-07-13T02:06:13;16.10;99.90
30097;DHT22;16915;51.466;3.610;2023-07-13T02:08:39;16.10;99.90
30097;DHT22;16915;51.466;3.610;2023-07-13T02:11:05;16.10;99.90
30097;DHT22;16915;51.466;3.610;2023-07-13T02:13:31;16.10;99.90
30097;DHT22;16915;51.466;3.610;2023-07-13T02:15:56;16.10;99.90
30097;DHT22;16915;51.466;3.610;2023-07-13T02:18:22;16.10;99.90
30097;DHT22;16915;51.466;3.610;2023-07-13T02:20:47;16.10;99.90
30097;DHT22;16915;51.466;3.610;2023-07-13T02:23:13;16.10;99.90
30097;DHT22;16915;51.466;3.610;2023-07-13T02:25:39;16.10;99.90
30097;DHT22;16915;51.466;3.610;2023-07-13T02:28:04;16.10;99.90
30097;DHT22;16915;51.466;3.610;2023-07-13T02:30:30;16.10;99.90
30097;DHT22;16915;51.466;3.610;2023-07-13T02:32:56;16.00;99.90
30097;DHT22;16915;51.466;3.610;2023-07-13T02:35:21;16.00;99.90
30097;DHT22;16915;51.466;3.610;2023-07-13T02:37:47;15.90;99.90
30097;DHT22;16915;51.466;3.610;2023-07-13T02:40:13;15.90;99.90
30097;DHT22;16915;51.466;3.610;2023-07-13T02:42:38;15.80;99.90
30097;DHT22;16915;51.466;3.610;2023-07-13T02:45:04;15.80;99.90
30097;DHT22;16915;51.466;3.610;2023-07-13T02:47:31;15.70;99.90
30097;DHT22;16915;51.466;3.610;2023-07-13T02:49:57;15.70;99.90
30097;DHT22;16915;51.466;3.610;2023-07-13T02:52:22;15.70;99.90
30097;DHT22;16915;51.466;3.610;2023-07-13T02:54:48;15.70;99.90
30097;DHT22;16915;51.466;3.610;2023-07-13T02:57:13;15.70;99.90
30097;DHT22;16915;51.466;3.610;2023-07-13T02:59:39;15.70;99.90
30097;DHT22;16915;51.466;3.610;2023-07-13T03:02:04;15.70;99.90
30097;DHT22;16915;51.466;3.610;2023-07-13T03:04:30;15.70;99.90
30097;DHT22;16915;51.466;3.610;2023-07-13T03:06:55;15.80;99.90
30097;DHT22;16915;51.466;3.610;2023-07-13T03:09:23;15.80;99.90
30097;DHT22;16915;51.466;3.610;2023-07-13T03:11:49;15.80;99.90
30097;DHT22;16915;51.466;3.610;2023-07-13T03:14:17;15.80;99.90
30097;DHT22;16915;51.466;3.610;2023-07-13T03:16:42;15.90;99.90
30097;DHT22;16915;51.466;3.610;2023-07-13T03:19:08;15.90;99.90
30097;DHT22;16915;51.466;3.610;2023-07-13T03:21:34;15.90;99.90
30097;DHT22;16915;51.466;3.610;2023-07-13T03:23:59;15.90;99.90
30097;DHT22;16915;51.466;3.610;2023-07-13T03:26:25;15.90;99.90
30097;DHT22;16915;51.466;3.610;2023-07-13T03:28:50;15.90;99.90
30097;DHT22;16915;51.466;3.610;2023-07-13T03:31:19;15.90;99.90
30097;DHT22;16915;51.466;3.610;2023-07-13T03:33:45;15.90;99.90
30097;DHT22;16915;51.466;3.610;2023-07-13T03:36:18;15.90;99.90
30097;DHT22;16915;51.466;3.610;2023-07-13T03:38:48;15.90;99.90
30097;DHT22;16915;51.466;3.610;2023-07-13T03:41:14;16.00;99.90
30097;DHT22;16915;51.466;3.610;2023-07-13T03:43:39;15.90;99.90
30097;DHT22;16915;51.466;3.610;2023-07-13T03:46:05;16.00;99.90
30097;DHT22;16915;51.466;3.610;2023-07-13T03:48:30;15.90;99.90
30097;DHT22;16915;51.466;3.610;2023-07-13T03:50:56;15.90;99.90
30097;DHT22;16915;51.466;3.610;2023-07-13T03:53:21;16.00;99.90
30097;DHT22;16915;51.466;3.610;2023-07-13T03:55:47;16.00;99.90
30097;DHT22;16915;51.466;3.610;2023-07-13T03:58:30;16.00;99.90
30097;DHT22;16915;51.466;3.610;2023-07-13T04:00:56;16.00;99.90
30097;DHT22;16915;51.466;3.610;2023-07-13T04:03:22;16.00;99.90
30097;DHT22;16915;51.466;3.610;2023-07-13T04:05:48;16.00;99.90
30097;DHT22;16915;51.466;3.610;2023-07-13T04:08:14;16.00;99.90
30097;DHT22;16915;51.466;3.610;2023-07-13T04:10:39;16.00;99.90
30097;DHT22;16915;51.466;3.610;2023-07-13T04:13:05;16.00;99.90
30097;DHT22;16915;51.466;3.610;2023-07-13T04:15:31;16.00;99.90
30097;DHT22;16915;51.466;3.610;2023-07-13T04:17:57;16.00;99.90
30097;DHT22;16915;51.466;3.610;2023-07-13T04:20:22;15.90;99.90
30097;DHT22;16915;51.466;3.610;2023-07-13T04:22:49;15.90;99.90
30097;DHT22;16915;51.466;3.610;2023-07-13T04:25:14;15.80;99.90
30097;DHT22;16915;51.466;3.610;2023-07-13T04:27:40;15.80;99.90
30097;DHT22;16915;51.466;3.610;2023-07-13T04:30:06;15.70;99.90
30097;DHT22;16915;51.466;3.610;2023-07-13T04:32:31;15.70;99.90
30097;DHT22;16915;51.466;3.610;2023-07-13T04:34:58;15.70;99.90
30097;DHT22;16915;51.466;3.610;2023-07-13T04:37:27;15.70;99.90
30097;DHT22;16915;51.466;3.610;2023-07-13T04:39:54;15.70;99.90
30097;DHT22;16915;51.466;3.610;2023-07-13T04:42:19;15.70;99.90
30097;DHT22;16915;51.466;3.610;2023-07-13T04:44:51;15.70;99.90
30097;DHT22;16915;51.466;3.610;2023-07-13T04:47:17;15.70;99.90
30097;DHT22;16915;51.466;3.610;2023-07-13T04:49:42;15.70;99.90
30097;DHT22;16915;51.466;3.610;2023-07-13T04:52:08;15.80;99.90
30097;DHT22;16915;51.466;3.610;2023-07-13T04:54:34;15.90;99.90
30097;DHT22;16915;51.466;3.610;2023-07-13T04:57:00;15.90;99.90
30097;DHT22;16915;51.466;3.610;2023-07-13T04:59:25;16.00;99.90
30097;DHT22;16915;51.466;3.610;2023-07-13T05:01:51;16.10;99.90
30097;DHT22;16915;51.466;3.610;2023-07-13T05:04:16;16.10;99.90
30097;DHT22;16915;51.466;3.610;2023-07-13T05:06:42;16.10;99.90
30097;DHT22;16915;51.466;3.610;2023-07-13T05:09:08;16.10;99.90
30097;DHT22;16915;51.466;3.610;2023-07-13T05:11:33;16.20;99.90
30097;DHT22;16915;51.466;3.610;2023-07-13T05:13:59;16.30;99.90
30097;DHT22;16915;51.466;3.610;2023-07-13T05:16:26;16.40;99.90
30097;DHT22;16915;51.466;3.610;2023-07-13T05:18:52;16.50;99.90
30097;DHT22;16915;51.466;3.610;2023-07-13T05:21:17;16.60;99.90
30097;DHT22;16915;51.466;3.610;2023-07-13T05:23:43;16.70;99.90
30097;DHT22;16915;51.466;3.610;2023-07-13T05:26:08;16.80;99.90
30097;DHT22;16915;51.466;3.610;2023-07-13T05:28:34;16.90;99.90
30097;DHT22;16915;51.466;3.610;2023-07-13T05:31:00;16.90;99.90
30097;DHT22;16915;51.466;3.610;2023-07-13T05:33:26;17.00;99.90
30097;DHT22;16915;51.466;3.610;2023-07-13T05:35:52;17.00;99.90
30097;DHT22;16915;51.466;3.610;2023-07-13T05:38:18;17.20;99.90
30097;DHT22;16915;51.466;3.610;2023-07-13T05:40:43;17.40;99.90
30097;DHT22;16915;51.466;3.610;2023-07-13T05:43:09;17.60;99.90
30097;DHT22;16915;51.466;3.610;2023-07-13T05:45:35;17.80;99.90
30097;DHT22;16915;51.466;3.610;2023-07-13T05:48:00;17.90;99.90
30097;DHT22;16915;51.466;3.610;2023-07-13T05:50:26;18.00;99.90
30097;DHT22;16915;51.466;3.610;2023-07-13T05:52:52;17.90;99.90
30097;DHT22;16915;51.466;3.610;2023-07-13T05:55:18;17.80;99.90
30097;DHT22;16915;51.466;3.610;2023-07-13T05:57:43;17.80;99.90
30097;DHT22;16915;51.466;3.610;2023-07-13T06:00:09;17.80;99.90
30097;DHT22;16915;51.466;3.610;2023-07-13T06:02:35;17.80;99.90
30097;DHT22;16915;51.466;3.610;2023-07-13T06:05:00;17.90;99.90
30097;DHT22;16915;51.466;3.610;2023-07-13T06:07:26;17.90;99.90
30097;DHT22;16915;51.466;3.610;2023-07-13T06:09:51;17.90;99.90
30097;DHT22;16915;51.466;3.610;2023-07-13T06:12:17;18.00;99.90
30097;DHT22;16915;51.466;3.610;2023-07-13T06:14:42;18.10;99.90
30097;DHT22;16915;51.466;3.610;2023-07-13T06:17:08;18.20;99.90
30097;DHT22;16915;51.466;3.610;2023-07-13T06:19:34;18.30;99.90
30097;DHT22;16915;51.466;3.610;2023-07-13T06:21:59;18.30;99.90
30097;DHT22;16915;51.466;3.610;2023-07-13T06:24:25;18.40;99.90
30097;DHT22;16915;51.466;3.610;2023-07-13T06:26:50;18.70;99.90
30097;DHT22;16915;51.466;3.610;2023-07-13T06:29:16;18.80;99.90
30097;DHT22;16915;51.466;3.610;2023-07-13T06:31:41;19.00;99.90
30097;DHT22;16915;51.466;3.610;2023-07-13T06:34:07;19.00;99.90
30097;DHT22;16915;51.466;3.610;2023-07-13T06:36:33;19.10;99.90
30097;DHT22;16915;51.466;3.610;2023-07-13T06:38:58;19.20;99.90
30097;DHT22;16915;51.466;3.610;2023-07-13T06:41:24;19.10;99.90
30097;DHT22;16915;51.466;3.610;2023-07-13T06:43:51;19.00;99.90
30097;DHT22;16915;51.466;3.610;2023-07-13T06:46:17;18.90;99.90
30097;DHT22;16915;51.466;3.610;2023-07-13T06:48:42;18.80;99.90
30097;DHT22;16915;51.466;3.610;2023-07-13T06:51:08;18.90;99.90
30097;DHT22;16915;51.466;3.610;2023-07-13T06:53:33;19.00;99.90
30097;DHT22;16915;51.466;3.610;2023-07-13T06:55:59;19.20;99.90
30097;DHT22;16915;51.466;3.610;2023-07-13T06:58:26;19.20;99.90
30097;DHT22;16915;51.466;3.610;2023-07-13T07:00:51;19.20;99.90
30097;DHT22;16915;51.466;3.610;2023-07-13T07:03:17;19.40;99.90
30097;DHT22;16915;51.466;3.610;2023-07-13T07:05:43;19.50;99.90
30097;DHT22;16915;51.466;3.610;2023-07-13T07:08:08;19.60;99.90
30097;DHT22;16915;51.466;3.610;2023-07-13T07:10:34;19.90;99.90
30097;DHT22;16915;51.466;3.610;2023-07-13T07:13:00;19.90;99.90
30097;DHT22;16915;51.466;3.610;2023-07-13T07:15:26;20.00;99.90
30097;DHT22;16915;51.466;3.610;2023-07-13T07:17:52;20.10;99.90
30097;DHT22;16915;51.466;3.610;2023-07-13T07:20:17;20.30;99.90
30097;DHT22;16915;51.466;3.610;2023-07-13T07:22:43;20.30;99.90
30097;DHT22;16915;51.466;3.610;2023-07-13T07:25:09;20.40;99.90
30097;DHT22;16915;51.466;3.610;2023-07-13T07:27:34;20.50;99.90
30097;DHT22;16915;51.466;3.610;2023-07-13T07:30:00;20.50;99.90
30097;DHT22;16915;51.466;3.610;2023-07-13T07:32:25;20.50;99.90
30097;DHT22;16915;51.466;3.610;2023-07-13T07:34:51;20.60;99.90
30097;DHT22;16915;51.466;3.610;2023-07-13T07:37:16;20.60;99.90
30097;DHT22;16915;51.466;3.610;2023-07-13T07:39:42;20.60;99.90
30097;DHT22;16915;51.466;3.610;2023-07-13T07:42:08;20.70;99.90
30097;DHT22;16915;51.466;3.610;2023-07-13T07:44:33;20.60;99.90
30097;DHT22;16915;51.466;3.610;2023-07-13T07:46:59;20.70;99.90
30097;DHT22;16915;51.466;3.610;2023-07-13T07:49:25;20.90;99.90
30097;DHT22;16915;51.466;3.610;2023-07-13T07:51:50;21.10;99.90
30097;DHT22;16915;51.466;3.610;2023-07-13T07:54:16;21.30;99.90
30097;DHT22;16915;51.466;3.610;2023-07-13T07:56:42;21.50;99.90
30097;DHT22;16915;51.466;3.610;2023-07-13T07:59:07;21.70;99.90
30097;DHT22;16915;51.466;3.610;2023-07-13T08:01:33;21.80;99.90
30097;DHT22;16915;51.466;3.610;2023-07-13T08:03:58;21.90;99.90
30097;DHT22;16915;51.466;3.610;2023-07-13T08:06:24;21.90;99.90
30097;DHT22;16915;51.466;3.610;2023-07-13T08:08:49;21.80;99.90
30097;DHT22;16915;51.466;3.610;2023-07-13T08:11:15;21.70;99.90
30097;DHT22;16915;51.466;3.610;2023-07-13T08:13:41;21.70;99.90
30097;DHT22;16915;51.466;3.610;2023-07-13T08:16:06;21.80;99.90
30097;DHT22;16915;51.466;3.610;2023-07-13T08:18:32;21.80;99.90
30097;DHT22;16915;51.466;3.610;2023-07-13T08:20:58;21.80;99.90
30097;DHT22;16915;51.466;3.610;2023-07-13T08:23:24;21.70;99.90
30097;DHT22;16915;51.466;3.610;2023-07-13T08:25:53;21.70;99.90
30097;DHT22;16915;51.466;3.610;2023-07-13T08:28:19;21.80;99.90
30097;DHT22;16915;51.466;3.610;2023-07-13T08:30:45;21.80;99.90
30097;DHT22;16915;51.466;3.610;2023-07-13T08:33:14;21.80;99.90
30097;DHT22;16915;51.466;3.610;2023-07-13T08:35:40;21.90;99.90
30097;DHT22;16915;51.466;3.610;2023-07-13T08:38:05;21.90;99.90
30097;DHT22;16915;51.466;3.610;2023-07-13T08:40:31;21.80;99.90
30097;DHT22;16915;51.466;3.610;2023-07-13T08:42:58;21.80;99.90
30097;DHT22;16915;51.466;3.610;2023-07-13T08:45:33;21.80;99.90
30097;DHT22;16915;51.466;3.610;2023-07-13T08:48:05;21.80;99.90
30097;DHT22;16915;51.466;3.610;2023-07-13T08:50:34;21.90;99.90
30097;DHT22;16915;51.466;3.610;2023-07-13T08:53:01;22.00;99.90
30097;DHT22;16915;51.466;3.610;2023-07-13T08:55:33;21.90;99.90
30097;DHT22;16915;51.466;3.610;2023-07-13T08:58:14;22.00;99.90
30097;DHT22;16915;51.466;3.610;2023-07-13T09:03:07;21.90;99.90
30097;DHT22;16915;51.466;3.610;2023-07-13T09:05:41;21.90;99.90
30097;DHT22;16915;51.466;3.610;2023-07-13T09:10:59;22.20;99.90
30097;DHT22;16915;51.466;3.610;2023-07-13T09:16:04;22.80;99.90
30097;DHT22;16915;51.466;3.610;2023-07-13T09:18:38;22.80;99.90
30097;DHT22;16915;51.466;3.610;2023-07-13T09:21:09;22.80;99.90
30097;DHT22;16915;51.466;3.610;2023-07-13T09:23:36;22.70;99.90
30097;DHT22;16915;51.466;3.610;2023-07-13T09:26:04;22.80;99.90
30097;DHT22;16915;51.466;3.610;2023-07-13T09:28:33;22.80;99.90
30097;DHT22;16915;51.466;3.610;2023-07-13T09:33:31;22.70;99.90
30097;DHT22;16915;51.466;3.610;2023-07-13T09:35:58;22.80;99.90
30097;DHT22;16915;51.466;3.610;2023-07-13T09:38:24;23.00;99.90
30097;DHT22;16915;51.466;3.610;2023-07-13T09:43:35;23.30;99.90
30097;DHT22;16915;51.466;3.610;2023-07-13T09:46:01;23.50;99.90
30097;DHT22;16915;51.466;3.610;2023-07-13T09:48:32;23.50;99.90
30097;DHT22;16915;51.466;3.610;2023-07-13T09:50:58;23.50;99.90
30097;DHT22;16915;51.466;3.610;2023-07-13T09:53:30;23.50;99.90
30097;DHT22;16915;51.466;3.610;2023-07-13T09:55:56;23.30;99.90
30097;DHT22;16915;51.466;3.610;2023-07-13T09:58:24;23.00;99.90
30097;DHT22;16915;51.466;3.610;2023-07-13T10:00:56;23.20;99.90
30097;DHT22;16915;51.466;3.610;2023-07-13T10:03:24;23.40;99.90
30097;DHT22;16915;51.466;3.610;2023-07-13T10:05:50;23.40;99.90
30097;DHT22;16915;51.466;3.610;2023-07-13T10:08:17;23.30;99.90
30097;DHT22;16915;51.466;3.610;2023-07-13T10:10:43;23.50;99.90
30097;DHT22;16915;51.466;3.610;2023-07-13T10:15:54;23.40;99.90
30097;DHT22;16915;51.466;3.610;2023-07-13T10:18:20;23.50;99.90
30097;DHT22;16915;51.466;3.610;2023-07-13T10:20:46;23.70;99.90
30097;DHT22;16915;51.466;3.610;2023-07-13T10:23:13;23.90;99.90
30097;DHT22;16915;51.466;3.610;2023-07-13T10:25:41;24.20;99.90
30097;DHT22;16915;51.466;3.610;2023-07-13T10:30:44;24.60;99.90
30097;DHT22;16915;51.466;3.610;2023-07-13T10:33:11;24.80;99.90
30097;DHT22;16915;51.466;3.610;2023-07-13T10:35:37;24.90;99.90
30097;DHT22;16915;51.466;3.610;2023-07-13T10:38:05;25.00;99.90
30097;DHT22;16915;51.466;3.610;2023-07-13T10:40:46;24.90;99.90
30097;DHT22;16915;51.466;3.610;2023-07-13T10:43:18;24.90;99.90
30097;DHT22;16915;51.466;3.610;2023-07-13T10:45:45;24.80;99.90
30097;DHT22;16915;51.466;3.610;2023-07-13T10:48:12;25.00;99.90
30097;DHT22;16915;51.466;3.610;2023-07-13T10:50:40;25.00;99.90
30097;DHT22;16915;51.466;3.610;2023-07-13T10:53:20;25.10;99.90
30097;DHT22;16915;51.466;3.610;2023-07-13T10:55:54;25.50;99.90
30097;DHT22;16915;51.466;3.610;2023-07-13T10:58:21;25.90;99.90
30097;DHT22;16915;51.466;3.610;2023-07-13T11:00:49;26.40;99.90
30097;DHT22;16915;51.466;3.610;2023-07-13T11:03:15;26.80;99.90
30097;DHT22;16915;51.466;3.610;2023-07-13T11:05:42;27.20;99.90
30097;DHT22;16915;51.466;3.610;2023-07-13T11:13:35;26.40;99.90
30097;DHT22;16915;51.466;3.610;2023-07-13T11:15:57;26.30;99.90
30097;DHT22;16915;51.466;3.610;2023-07-13T11:18:23;25.80;99.90
30097;DHT22;16915;51.466;3.610;2023-07-13T11:20:50;25.70;99.90
30097;DHT22;16915;51.466;3.610;2023-07-13T11:25:43;25.70;99.90
30097;DHT22;16915;51.466;3.610;2023-07-13T11:30:41;25.80;99.90
30097;DHT22;16915;51.466;3.610;2023-07-13T11:38:19;26.70;99.90
30097;DHT22;16915;51.466;3.610;2023-07-13T11:40:46;26.90;99.90
30097;DHT22;16915;51.466;3.610;2023-07-13T11:43:15;27.30;99.90
30097;DHT22;16915;51.466;3.610;2023-07-13T11:45:42;28.00;99.90
30097;DHT22;16915;51.466;3.610;2023-07-13T11:48:21;28.50;99.90
30097;DHT22;16915;51.466;3.610;2023-07-13T11:50:51;28.90;99.90
30097;DHT22;16915;51.466;3.610;2023-07-13T11:53:17;28.70;99.90
30097;DHT22;16915;51.466;3.610;2023-07-13T11:55:42;28.60;99.90
30097;DHT22;16915;51.466;3.610;2023-07-13T11:58:08;28.00;99.90
30097;DHT22;16915;51.466;3.610;2023-07-13T12:00:34;27.70;99.90
30097;DHT22;16915;51.466;3.610;2023-07-13T12:03:01;28.00;99.90
30097;DHT22;16915;51.466;3.610;2023-07-13T12:05:27;28.50;99.90
30097;DHT22;16915;51.466;3.610;2023-07-13T12:07:53;28.70;99.90
30097;DHT22;16915;51.466;3.610;2023-07-13T12:12:53;28.90;99.90
30097;DHT22;16915;51.466;3.610;2023-07-13T12:15:19;29.00;99.90
30097;DHT22;16915;51.466;3.610;2023-07-13T12:17:45;29.00;99.90
30097;DHT22;16915;51.466;3.610;2023-07-13T12:20:20;28.90;99.90
30097;DHT22;16915;51.466;3.610;2023-07-13T12:22:46;28.90;99.90
30097;DHT22;16915;51.466;3.610;2023-07-13T12:25:12;29.40;99.90
30097;DHT22;16915;51.466;3.610;2023-07-13T12:27:38;29.70;99.30
30097;DHT22;16915;51.466;3.610;2023-07-13T12:30:05;29.40;99.10
30097;DHT22;16915;51.466;3.610;2023-07-13T12:32:31;29.30;99.20
30097;DHT22;16915;51.466;3.610;2023-07-13T12:35:02;29.30;99.30
30097;DHT22;16915;51.466;3.610;2023-07-13T12:37:33;28.90;99.70
30097;DHT22;16915;51.466;3.610;2023-07-13T12:39:59;29.30;99.90
30097;DHT22;16915;51.466;3.610;2023-07-13T12:47:21;29.30;98.80
30097;DHT22;16915;51.466;3.610;2023-07-13T12:49:48;29.70;98.50
30097;DHT22;16915;51.466;3.610;2023-07-13T12:52:15;29.90;98.70
30097;DHT22;16915;51.466;3.610;2023-07-13T12:54:41;30.70;97.80
30097;DHT22;16915;51.466;3.610;2023-07-13T12:57:08;30.70;96.00
30097;DHT22;16915;51.466;3.610;2023-07-13T12:59:39;29.60;98.50
30097;DHT22;16915;51.466;3.610;2023-07-13T13:02:16;29.70;98.70
30097;DHT22;16915;51.466;3.610;2023-07-13T13:04:42;30.30;98.10
30097;DHT22;16915;51.466;3.610;2023-07-13T13:07:08;30.80;97.60
30097;DHT22;16915;51.466;3.610;2023-07-13T13:09:35;31.20;97.70
30097;DHT22;16915;51.466;3.610;2023-07-13T13:12:00;31.90;97.30
30097;DHT22;16915;51.466;3.610;2023-07-13T13:14:26;32.40;95.70
30097;DHT22;16915;51.466;3.610;2023-07-13T13:16:51;32.10;95.60
30097;DHT22;16915;51.466;3.610;2023-07-13T13:19:20;32.20;94.40
30097;DHT22;16915;51.466;3.610;2023-07-13T13:21:47;32.50;94.50
30097;DHT22;16915;51.466;3.610;2023-07-13T13:24:13;32.70;92.80
30097;DHT22;16915;51.466;3.610;2023-07-13T13:26:39;32.70;92.90
30097;DHT22;16915;51.466;3.610;2023-07-13T13:29:24;32.50;91.60
30097;DHT22;16915;51.466;3.610;2023-07-13T13:31:50;32.80;91.00
30097;DHT22;16915;51.466;3.610;2023-07-13T13:34:16;32.40;90.80
30097;DHT22;16915;51.466;3.610;2023-07-13T13:36:42;32.40;90.50
30097;DHT22;16915;51.466;3.610;2023-07-13T13:39:21;32.70;90.20
30097;DHT22;16915;51.466;3.610;2023-07-13T13:41:48;32.80;88.50
30097;DHT22;16915;51.466;3.610;2023-07-13T13:44:15;32.10;85.20
30097;DHT22;16915;51.466;3.610;2023-07-13T13:46:41;31.40;87.20
30097;DHT22;16915;51.466;3.610;2023-07-13T13:49:11;31.20;87.60
30097;DHT22;16915;51.466;3.610;2023-07-13T13:51:38;31.10;87.60
30097;DHT22;16915;51.466;3.610;2023-07-13T13:54:04;30.90;90.20
30097;DHT22;16915;51.466;3.610;2023-07-13T13:56:30;31.50;89.90
30097;DHT22;16915;51.466;3.610;2023-07-13T13:58:55;31.80;85.80
30097;DHT22;16915;51.466;3.610;2023-07-13T14:01:21;31.80;86.20
30097;DHT22;16915;51.466;3.610;2023-07-13T14:03:48;31.90;85.40
30097;DHT22;16915;51.466;3.610;2023-07-13T14:06:14;31.90;86.70
30097;DHT22;16915;51.466;3.610;2023-07-13T14:08:40;31.50;86.60
30097;DHT22;16915;51.466;3.610;2023-07-13T14:11:07;31.50;86.90
30097;DHT22;16915;51.466;3.610;2023-07-13T14:13:37;31.00;88.30
30097;DHT22;16915;51.466;3.610;2023-07-13T14:16:09;31.10;89.90
30097;DHT22;16915;51.466;3.610;2023-07-13T14:18:36;31.60;90.00
30097;DHT22;16915;51.466;3.610;2023-07-13T14:21:01;32.00;87.80
30097;DHT22;16915;51.466;3.610;2023-07-13T14:23:27;31.90;89.30
30097;DHT22;16915;51.466;3.610;2023-07-13T14:25:52;31.40;91.10
30097;DHT22;16915;51.466;3.610;2023-07-13T14:28:25;31.50;90.50
30097;DHT22;16915;51.466;3.610;2023-07-13T14:30:51;31.30;90.70
30097;DHT22;16915;51.466;3.610;2023-07-13T14:33:17;30.70;91.40
30097;DHT22;16915;51.466;3.610;2023-07-13T14:35:43;30.00;92.10
30097;DHT22;16915;51.466;3.610;2023-07-13T14:38:16;29.30;92.50
30097;DHT22;16915;51.466;3.610;2023-07-13T14:40:42;29.60;93.30
30097;DHT22;16915;51.466;3.610;2023-07-13T14:43:09;29.80;91.30
30097;DHT22;16915;51.466;3.610;2023-07-13T14:45:35;30.10;91.00
30097;DHT22;16915;51.466;3.610;2023-07-13T14:48:02;30.20;90.40
30097;DHT22;16915;51.466;3.610;2023-07-13T14:50:31;30.20;90.20
30097;DHT22;16915;51.466;3.610;2023-07-13T14:52:57;29.70;90.50
30097;DHT22;16915;51.466;3.610;2023-07-13T14:55:23;30.00;91.20
30097;DHT22;16915;51.466;3.610;2023-07-13T14:57:51;29.60;91.50
30097;DHT22;16915;51.466;3.610;2023-07-13T15:00:18;30.00;92.30
30097;DHT22;16915;51.466;3.610;2023-07-13T15:02:45;30.30;92.40
30097;DHT22;16915;51.466;3.610;2023-07-13T15:05:15;30.30;92.70
30097;DHT22;16915;51.466;3.610;2023-07-13T15:07:41;30.40;92.90
30097;DHT22;16915;51.466;3.610;2023-07-13T15:10:17;30.80;92.90
30097;DHT22;16915;51.466;3.610;2023-07-13T15:12:43;30.80;92.30
30097;DHT22;16915;51.466;3.610;2023-07-13T15:15:08;29.90;93.70
30097;DHT22;16915;51.466;3.610;2023-07-13T15:17:41;29.80;94.20
30097;DHT22;16915;51.466;3.610;2023-07-13T15:22:39;30.60;92.70
30097;DHT22;16915;51.466;3.610;2023-07-13T15:25:07;30.40;92.50
30097;DHT22;16915;51.466;3.610;2023-07-13T15:27:37;30.60;92.70
30097;DHT22;16915;51.466;3.610;2023-07-13T15:30:03;31.00;91.40
30097;DHT22;16915;51.466;3.610;2023-07-13T15:32:29;31.00;91.60
30097;DHT22;16915;51.466;3.610;2023-07-13T15:34:54;31.00;90.40
30097;DHT22;16915;51.466;3.610;2023-07-13T15:37:20;30.90;90.10
30097;DHT22;16915;51.466;3.610;2023-07-13T15:39:46;30.50;89.60
30097;DHT22;16915;51.466;3.610;2023-07-13T15:42:18;30.20;90.50
30097;DHT22;16915;51.466;3.610;2023-07-13T15:44:44;30.10;90.80
30097;DHT22;16915;51.466;3.610;2023-07-13T15:47:11;30.20;91.30
30097;DHT22;16915;51.466;3.610;2023-07-13T15:49:36;30.50;90.70
30097;DHT22;16915;51.466;3.610;2023-07-13T15:52:03;30.40;90.80
30097;DHT22;16915;51.466;3.610;2023-07-13T15:54:29;30.40;90.70
30097;DHT22;16915;51.466;3.610;2023-07-13T15:56:55;30.80;90.40
30097;DHT22;16915;51.466;3.610;2023-07-13T15:59:25;30.90;89.50
30097;DHT22;16915;51.466;3.610;2023-07-13T16:01:51;30.30;90.00
30097;DHT22;16915;51.466;3.610;2023-07-13T16:04:16;30.00;90.00
30097;DHT22;16915;51.466;3.610;2023-07-13T16:06:44;29.90;90.60
30097;DHT22;16915;51.466;3.610;2023-07-13T16:09:17;29.60;90.80
30097;DHT22;16915;51.466;3.610;2023-07-13T16:11:43;29.50;90.80
30097;DHT22;16915;51.466;3.610;2023-07-13T16:14:11;28.80;90.00